createdAt,value
2019-02-25T00:00:11.917Z,27.71
2019-02-25T00:01:21.557Z,27.42
2019-02-25T00:02:31.364Z,27.51
2019-02-25T00:03:40.810Z,27.42
2019-02-25T00:04:49.925Z,27.42
2019-02-25T00:05:59.657Z,27.42
2019-02-25T00:07:09.503Z,27.23
2019-02-25T00:08:19.134Z,27.33
2019-02-25T00:09:28.358Z,27.33
2019-02-25T00:10:37.941Z,27.51
2019-02-25T00:11:47.421Z,27.23
2019-02-25T00:12:56.693Z,27.13
2019-02-25T00:14:06.031Z,27.23
2019-02-25T00:15:15.759Z,27.33
2019-02-25T00:16:25.695Z,27.42
2019-02-25T00:17:35.018Z,27.23
2019-02-25T00:18:44.304Z,27.23
2019-02-25T00:19:53.609Z,27.13
2019-02-25T00:21:03.147Z,27.12
2019-02-25T00:22:12.489Z,26.92
2019-02-25T00:23:22.262Z,27.03
2019-02-25T00:24:31.864Z,26.82
2019-02-25T00:25:41.454Z,27.02
2019-02-25T00:26:50.777Z,27.02
2019-02-25T00:27:59.795Z,27.22
2019-02-25T00:29:08.889Z,26.73
2019-02-25T00:30:18.776Z,27.12
2019-02-25T00:31:29.689Z,27.12
2019-02-25T00:32:40.440Z,26.82
2019-02-25T00:33:49.879Z,26.92
2019-02-25T00:34:59.398Z,26.73
2019-02-25T00:36:09.305Z,26.64
2019-02-25T00:37:19.096Z,26.73
2019-02-25T00:38:28.661Z,26.54
2019-02-25T00:39:37.998Z,26.73
2019-02-25T00:40:47.664Z,26.73
2019-02-25T00:41:57.269Z,26.54
2019-02-25T00:43:06.860Z,26.82
2019-02-25T00:44:16.640Z,26.92
2019-02-25T00:45:26.400Z,26.44
2019-02-25T00:46:36.043Z,26.64
2019-02-25T00:47:45.579Z,26.73
2019-02-25T00:48:54.961Z,26.64
2019-02-25T00:50:04.939Z,26.54
2019-02-25T00:51:14.967Z,26.44
2019-02-25T00:52:24.349Z,26.44
2019-02-25T00:53:33.569Z,26.34
2019-02-25T00:54:42.756Z,26.34
2019-02-25T00:55:52.110Z,26.34
2019-02-25T00:57:01.327Z,26.44
2019-02-25T00:58:11.752Z,26.34
2019-02-25T00:59:21.481Z,26.44
2019-02-25T01:00:30.859Z,26.25
2019-02-25T01:01:40.009Z,26.25
2019-02-25T01:02:49.363Z,26.34
2019-02-25T01:03:58.449Z,26.25
2019-02-25T01:05:07.538Z,26.54
2019-02-25T01:06:17.391Z,26.25
2019-02-25T01:07:26.967Z,26.25
2019-02-25T01:08:36.414Z,25.96
2019-02-25T01:09:45.718Z,25.96
2019-02-25T01:10:54.740Z,25.86
2019-02-25T01:12:04.227Z,25.76
2019-02-25T01:13:13.920Z,25.86
2019-02-25T01:14:23.070Z,25.86
2019-02-25T01:15:32.444Z,25.86
2019-02-25T01:16:41.923Z,25.86
2019-02-25T01:17:51.623Z,25.96
2019-02-25T01:19:02.999Z,26.06
2019-02-25T01:20:12.710Z,26.15
2019-02-25T01:21:22.105Z,26.15
2019-02-25T01:22:31.393Z,26.25
2019-02-25T01:23:40.759Z,25.67
2019-02-25T01:24:51.452Z,25.86
2019-02-25T01:26:00.944Z,25.86
2019-02-25T01:27:09.953Z,25.86
2019-02-25T01:28:19.766Z,25.85
2019-02-25T01:29:29.302Z,25.76
2019-02-25T01:30:39.049Z,25.67
2019-02-25T01:31:48.181Z,25.75
2019-02-25T01:32:57.966Z,25.67
2019-02-25T01:34:07.519Z,25.56
2019-02-25T01:35:17.106Z,25.66
2019-02-25T01:36:26.548Z,25.48
2019-02-25T01:37:35.618Z,25.46
2019-02-25T01:38:45.237Z,25.46
2019-02-25T01:39:54.580Z,25.56
2019-02-25T01:41:03.580Z,25.56
2019-02-25T01:42:13.229Z,25.66
2019-02-25T01:43:22.681Z,25.66
2019-02-25T01:44:32.498Z,25.37
2019-02-25T01:45:42.076Z,25.27
2019-02-25T01:46:51.172Z,25.37
2019-02-25T01:48:00.239Z,25.37
2019-02-25T01:49:09.849Z,25.27
2019-02-25T01:50:19.961Z,25.27
2019-02-25T01:51:29.622Z,25.37
2019-02-25T01:52:39.443Z,25.37
2019-02-25T01:53:48.750Z,25.37
2019-02-25T01:54:58.079Z,25.46
2019-02-25T01:56:07.642Z,25.18
2019-02-25T01:57:17.037Z,25.27
2019-02-25T01:58:26.980Z,25.18
2019-02-25T01:59:36.348Z,25.27
2019-02-25T02:00:46.320Z,25.18
2019-02-25T02:01:56.356Z,25.37
2019-02-25T02:03:05.759Z,25.37
2019-02-25T02:04:15.470Z,25.08
2019-02-25T02:05:27.030Z,25.08
2019-02-25T02:06:36.425Z,25.18
2019-02-25T02:07:45.319Z,25.18
2019-02-25T02:08:54.783Z,24.98
2019-02-25T02:10:04.462Z,25.08
2019-02-25T02:11:13.572Z,25.18
2019-02-25T02:12:23.207Z,24.98
2019-02-25T02:13:35.102Z,25.08
2019-02-25T02:14:45.494Z,25.08
2019-02-25T02:15:55.071Z,24.88
2019-02-25T02:17:04.673Z,24.88
2019-02-25T02:18:14.359Z,24.88
2019-02-25T02:19:23.438Z,24.98
2019-02-25T02:20:32.868Z,24.79
2019-02-25T02:21:42.561Z,24.79
2019-02-25T02:22:51.622Z,24.98
2019-02-25T02:24:01.621Z,24.79
2019-02-25T02:25:11.207Z,24.88
2019-02-25T02:26:21.158Z,24.79
2019-02-25T02:27:30.854Z,24.6
2019-02-25T02:28:40.421Z,24.69
2019-02-25T02:29:50.030Z,24.79
2019-02-25T02:30:59.778Z,24.6
2019-02-25T02:32:09.174Z,24.4
2019-02-25T02:33:19.048Z,24.5
2019-02-25T02:34:29.031Z,24.5
2019-02-25T02:35:39.004Z,24.4
2019-02-25T02:36:49.525Z,24.6
2019-02-25T02:37:58.418Z,24.69
2019-02-25T02:39:07.872Z,24.69
2019-02-25T02:40:17.895Z,24.4
2019-02-25T02:41:27.435Z,24.69
2019-02-25T02:42:36.977Z,24.5
2019-02-25T02:43:46.902Z,24.6
2019-02-25T02:44:56.238Z,24.6
2019-02-25T02:46:06.034Z,24.4
2019-02-25T02:47:15.467Z,24.69
2019-02-25T02:48:25.036Z,24.69
2019-02-25T02:49:34.700Z,24.4
2019-02-25T02:50:44.326Z,24.21
2019-02-25T02:51:53.946Z,24.69
2019-02-25T02:53:03.785Z,24.4
2019-02-25T02:54:13.195Z,24.4
2019-02-25T02:55:23.036Z,24.29
2019-02-25T02:56:32.812Z,24.29
2019-02-25T02:57:42.127Z,24.4
2019-02-25T02:58:52.033Z,24.4
2019-02-25T03:00:01.306Z,24.4
2019-02-25T03:01:10.467Z,24.49
2019-02-25T03:02:20.566Z,24.49
2019-02-25T03:03:30.159Z,24.4
2019-02-25T03:04:39.303Z,24.1
2019-02-25T03:05:48.907Z,24.29
2019-02-25T03:06:58.780Z,24.11
2019-02-25T03:08:08.178Z,24.29
2019-02-25T03:09:17.602Z,24.1
2019-02-25T03:10:26.731Z,24.2
2019-02-25T03:11:36.359Z,24.2
2019-02-25T03:12:46.225Z,24.01
2019-02-25T03:13:55.753Z,24.01
2019-02-25T03:15:04.877Z,24.1
2019-02-25T03:16:14.609Z,24.01
2019-02-25T03:17:23.953Z,24.01
2019-02-25T03:18:33.278Z,23.91
2019-02-25T03:19:43.004Z,23.81
2019-02-25T03:20:52.745Z,23.81
2019-02-25T03:22:02.539Z,24.1
2019-02-25T03:23:12.475Z,24.29
2019-02-25T03:24:22.320Z,24.1
2019-02-25T03:25:31.437Z,24.01
2019-02-25T03:26:40.458Z,24.01
2019-02-25T03:27:49.574Z,24.29
2019-02-25T03:28:59.760Z,24.2
2019-02-25T03:30:09.187Z,24.2
2019-02-25T03:31:19.229Z,24.01
2019-02-25T03:32:28.843Z,23.72
2019-02-25T03:33:38.974Z,23.81
2019-02-25T03:34:48.844Z,23.81
2019-02-25T03:35:58.437Z,23.62
2019-02-25T03:37:08.034Z,23.62
2019-02-25T03:38:17.633Z,23.72
2019-02-25T03:39:27.263Z,23.62
2019-02-25T03:40:36.600Z,23.62
2019-02-25T03:41:46.188Z,23.62
2019-02-25T03:42:55.248Z,23.52
2019-02-25T03:44:04.538Z,23.62
2019-02-25T03:45:13.866Z,23.62
2019-02-25T03:46:23.191Z,23.62
2019-02-25T03:47:32.712Z,23.72
2019-02-25T03:48:41.973Z,23.62
2019-02-25T03:49:51.059Z,23.72
2019-02-25T03:51:00.480Z,23.72
2019-02-25T03:52:10.981Z,23.81
2019-02-25T03:53:20.851Z,23.81
2019-02-25T03:54:30.452Z,23.72
2019-02-25T03:55:40.291Z,23.72
2019-02-25T03:56:50.209Z,23.43
2019-02-25T03:57:59.858Z,23.33
2019-02-25T03:59:09.974Z,23.72
2019-02-25T04:00:20.139Z,23.43
2019-02-25T04:01:29.778Z,23.72
2019-02-25T04:02:39.056Z,23.52
2019-02-25T04:03:48.901Z,23.62
2019-02-25T04:04:58.227Z,23.62
2019-02-25T04:06:07.690Z,23.52
2019-02-25T04:07:17.237Z,23.52
2019-02-25T04:08:26.859Z,23.52
2019-02-25T04:09:36.477Z,23.52
2019-02-25T04:10:45.821Z,23.62
2019-02-25T04:11:55.653Z,23.52
2019-02-25T04:13:05.965Z,23.52
2019-02-25T04:14:15.680Z,23.52
2019-02-25T04:15:25.330Z,23.43
2019-02-25T04:16:34.489Z,23.43
2019-02-25T04:17:44.115Z,23.52
2019-02-25T04:18:53.969Z,23.62
2019-02-25T04:20:03.508Z,23.62
2019-02-25T04:21:12.918Z,23.52
2019-02-25T04:22:22.756Z,23.62
2019-02-25T04:23:31.877Z,23.62
2019-02-25T04:24:41.455Z,23.52
2019-02-25T04:25:51.015Z,23.52
2019-02-25T04:27:00.460Z,23.43
2019-02-25T04:28:09.858Z,23.52
2019-02-25T04:29:18.911Z,23.33
2019-02-25T04:30:29.035Z,23.33
2019-02-25T04:31:39.167Z,23.52
2019-02-25T04:32:48.505Z,23.52
2019-02-25T04:33:57.873Z,23.33
2019-02-25T04:35:07.174Z,23.24
2019-02-25T04:36:16.507Z,23.33
2019-02-25T04:37:26.343Z,23.43
2019-02-25T04:38:35.418Z,23.43
2019-02-25T04:39:45.305Z,23.72
2019-02-25T04:40:54.889Z,23.24
2019-02-25T04:42:04.578Z,23.14
2019-02-25T04:43:13.915Z,23.62
2019-02-25T04:44:23.214Z,23.33
2019-02-25T04:45:32.820Z,23.24
2019-02-25T04:46:42.670Z,23.33
2019-02-25T04:47:52.032Z,23.33
2019-02-25T04:49:01.426Z,23.62
2019-02-25T04:50:11.071Z,23.43
2019-02-25T04:51:20.470Z,23.43
2019-02-25T04:52:30.352Z,23.52
2019-02-25T04:53:39.992Z,23.52
2019-02-25T04:54:49.367Z,23.62
2019-02-25T04:55:59.150Z,23.41
2019-02-25T04:57:08.862Z,23.43
2019-02-25T04:58:18.224Z,23.24
2019-02-25T04:59:27.596Z,23.33
2019-02-25T05:00:37.717Z,23.61
2019-02-25T05:01:46.742Z,23.52
2019-02-25T05:02:56.113Z,23.32
2019-02-25T05:04:05.504Z,23.41
2019-02-25T05:05:15.372Z,23.22
2019-02-25T05:06:25.166Z,23.32
2019-02-25T05:07:34.259Z,23.43
2019-02-25T05:08:43.341Z,23.22
2019-02-25T05:09:53.216Z,23.22
2019-02-25T05:11:02.786Z,23.22
2019-02-25T05:12:12.127Z,23.32
2019-02-25T05:13:21.945Z,23.41
2019-02-25T05:14:31.208Z,23.41
2019-02-25T05:15:40.758Z,23.32
2019-02-25T05:16:50.330Z,23.32
2019-02-25T05:17:59.123Z,23.13
2019-02-25T05:19:08.385Z,23.13
2019-02-25T05:20:18.158Z,23.13
2019-02-25T05:21:27.303Z,23.03
2019-02-25T05:22:37.638Z,23.13
2019-02-25T05:23:47.282Z,23.22
2019-02-25T05:24:56.817Z,23.22
2019-02-25T05:26:06.137Z,23.22
2019-02-25T05:27:15.976Z,23.22
2019-02-25T05:28:25.573Z,23.13
2019-02-25T05:29:34.668Z,23.13
2019-02-25T05:30:43.700Z,23.22
2019-02-25T05:31:53.329Z,23.22
2019-02-25T05:33:02.845Z,23.03
2019-02-25T05:34:12.714Z,23.22
2019-02-25T05:35:22.309Z,23.22
2019-02-25T05:36:31.879Z,23.13
2019-02-25T05:37:41.462Z,23.22
2019-02-25T05:38:51.029Z,23.13
2019-02-25T05:40:01.461Z,23.13
2019-02-25T05:41:11.007Z,23.13
2019-02-25T05:42:21.024Z,23.13
2019-02-25T05:43:30.782Z,22.93
2019-02-25T05:44:40.296Z,23.13
2019-02-25T05:45:49.755Z,22.93
2019-02-25T05:46:59.517Z,22.84
2019-02-25T05:48:08.898Z,22.84
2019-02-25T05:49:18.430Z,22.64
2019-02-25T05:50:27.786Z,22.55
2019-02-25T05:51:36.866Z,22.55
2019-02-25T05:52:45.935Z,22.64
2019-02-25T05:53:55.305Z,22.55
2019-02-25T05:55:04.813Z,22.64
2019-02-25T05:56:14.590Z,22.64
2019-02-25T05:57:24.184Z,22.74
2019-02-25T05:58:33.978Z,22.74
2019-02-25T05:59:43.275Z,22.74
2019-02-25T06:00:53.120Z,22.74
2019-02-25T06:02:02.894Z,22.74
2019-02-25T06:03:12.200Z,22.64
2019-02-25T06:04:21.806Z,22.64
2019-02-25T06:05:30.829Z,22.64
2019-02-25T06:06:39.674Z,22.74
2019-02-25T06:07:49.236Z,22.74
2019-02-25T06:08:58.817Z,22.74
2019-02-25T06:10:08.605Z,22.74
2019-02-25T06:11:18.482Z,22.74
2019-02-25T06:12:28.251Z,22.84
2019-02-25T06:13:38.028Z,22.74
2019-02-25T06:14:47.846Z,22.84
2019-02-25T06:15:57.624Z,22.84
2019-02-25T06:17:07.112Z,22.74
2019-02-25T06:18:16.118Z,22.84
2019-02-25T06:19:25.971Z,22.84
2019-02-25T06:20:35.297Z,22.74
2019-02-25T06:21:44.459Z,22.74
2019-02-25T06:22:53.501Z,22.84
2019-02-25T06:24:03.349Z,22.84
2019-02-25T06:25:12.718Z,22.84
2019-02-25T06:26:21.999Z,22.74
2019-02-25T06:27:33.172Z,22.84
2019-02-25T06:28:42.726Z,22.74
2019-02-25T06:29:51.841Z,22.45
2019-02-25T06:31:01.415Z,22.36
2019-02-25T06:32:10.690Z,22.55
2019-02-25T06:33:19.758Z,22.55
2019-02-25T06:34:29.086Z,22.55
2019-02-25T06:35:38.167Z,22.55
2019-02-25T06:36:47.651Z,22.55
2019-02-25T06:37:57.500Z,22.55
2019-02-25T06:39:07.070Z,22.45
2019-02-25T06:40:18.349Z,22.36
2019-02-25T06:41:28.259Z,22.45
2019-02-25T06:42:38.010Z,22.45
2019-02-25T06:43:47.729Z,22.45
2019-02-25T06:44:57.253Z,22.55
2019-02-25T06:46:06.954Z,22.55
2019-02-25T06:47:16.172Z,22.55
2019-02-25T06:48:25.369Z,22.64
2019-02-25T06:49:35.377Z,22.55
2019-02-25T06:50:44.381Z,22.64
2019-02-25T06:51:53.882Z,22.74
2019-02-25T06:53:03.430Z,22.55
2019-02-25T06:54:12.944Z,22.26
2019-02-25T06:55:22.167Z,22.36
2019-02-25T06:56:31.915Z,22.36
2019-02-25T06:57:41.732Z,22.55
2019-02-25T06:58:51.001Z,22.55
2019-02-25T07:00:00.572Z,22.36
2019-02-25T07:01:09.906Z,22.36
2019-02-25T07:02:19.466Z,22.45
2019-02-25T07:03:28.767Z,22.45
2019-02-25T07:04:38.255Z,22.26
2019-02-25T07:05:48.143Z,22.26
2019-02-25T07:06:57.441Z,22.36
2019-02-25T07:08:06.781Z,22.45
2019-02-25T07:09:15.764Z,22.36
2019-02-25T07:10:25.040Z,22.36
2019-02-25T07:11:34.823Z,22.55
2019-02-25T07:12:44.162Z,22.55
2019-02-25T07:13:53.461Z,22.45
2019-02-25T07:15:03.269Z,22.34
2019-02-25T07:16:12.570Z,22.53
2019-02-25T07:17:22.777Z,22.53
2019-02-25T07:18:32.450Z,22.34
2019-02-25T07:19:41.728Z,22.63
2019-02-25T07:20:51.332Z,22.53
2019-02-25T07:22:00.179Z,22.53
2019-02-25T07:23:10.527Z,22.44
2019-02-25T07:24:19.631Z,22.44
2019-02-25T07:25:28.970Z,22.44
2019-02-25T07:26:38.708Z,22.25
2019-02-25T07:27:47.993Z,22.34
2019-02-25T07:28:57.081Z,22.25
2019-02-25T07:30:08.295Z,22.25
2019-02-25T07:31:18.410Z,22.15
2019-02-25T07:32:27.453Z,22.25
2019-02-25T07:33:37.184Z,22.34
2019-02-25T07:34:46.961Z,22.15
2019-02-25T07:35:56.432Z,22.26
2019-02-25T07:37:05.749Z,22.26
2019-02-25T07:38:14.796Z,22.16
2019-02-25T07:39:23.910Z,21.97
2019-02-25T07:40:33.305Z,22.06
2019-02-25T07:41:42.626Z,22.06
2019-02-25T07:42:51.952Z,21.88
2019-02-25T07:44:01.279Z,21.88
2019-02-25T07:45:10.648Z,21.39
2019-02-25T07:46:19.968Z,21.4
2019-02-25T07:47:29.303Z,21.5
2019-02-25T07:48:38.833Z,21.69
2019-02-25T07:49:49.653Z,21.5
2019-02-25T07:50:58.740Z,21.5
2019-02-25T07:52:07.821Z,21.4
2019-02-25T07:53:17.134Z,21.31
2019-02-25T07:54:25.931Z,21.22
2019-02-25T07:55:35.197Z,21.22
2019-02-25T07:56:44.534Z,21.03
2019-02-25T07:57:53.616Z,20.83
2019-02-25T07:59:02.955Z,20.93
2019-02-25T08:00:12.280Z,20.84
2019-02-25T08:01:21.859Z,20.94
2019-02-25T08:02:31.146Z,20.56
2019-02-25T08:03:40.484Z,20.65
2019-02-25T08:04:50.660Z,20.56
2019-02-25T08:06:00.297Z,20.56
2019-02-25T08:07:09.129Z,20.65
2019-02-25T08:08:18.436Z,20.65
2019-02-25T08:09:27.723Z,20.65
2019-02-25T08:10:36.999Z,20.75
2019-02-25T08:11:46.767Z,20.65
2019-02-25T08:12:55.558Z,20.66
2019-02-25T08:14:05.074Z,20.56
2019-02-25T08:15:14.432Z,20.66
2019-02-25T08:16:23.455Z,20.76
2019-02-25T08:17:32.983Z,20.66
2019-02-25T08:18:42.521Z,20.56
2019-02-25T08:19:52.654Z,20.56
2019-02-25T08:21:02.550Z,20.86
2019-02-25T08:22:11.873Z,20.66
2019-02-25T08:23:21.232Z,20.66
2019-02-25T08:24:33.347Z,20.56
2019-02-25T08:25:43.430Z,20.86
2019-02-25T08:26:54.732Z,20.76
2019-02-25T08:28:04.562Z,20.86
2019-02-25T08:29:13.870Z,20.95
2019-02-25T08:30:23.149Z,20.95
2019-02-25T08:31:32.939Z,20.94
2019-02-25T08:32:42.319Z,21.14
2019-02-25T08:33:51.662Z,21.04
2019-02-25T08:35:02.525Z,21.04
2019-02-25T08:36:12.178Z,21.23
2019-02-25T08:37:21.330Z,21.33
2019-02-25T08:38:31.496Z,21.42
2019-02-25T08:39:40.948Z,21.33
2019-02-25T08:40:50.838Z,21.42
2019-02-25T08:42:00.862Z,21.23
2019-02-25T08:43:10.524Z,21.42
2019-02-25T08:44:20.339Z,21.23
2019-02-25T08:45:30.134Z,20.94
2019-02-25T08:46:39.771Z,21.33
2019-02-25T08:47:48.920Z,21.42
2019-02-25T08:48:58.387Z,21.52
2019-02-25T08:50:07.696Z,21.52
2019-02-25T08:51:16.842Z,21.52
2019-02-25T08:52:26.753Z,21.33
2019-02-25T08:53:36.173Z,21.52
2019-02-25T08:54:46.100Z,21.62
2019-02-25T08:55:55.769Z,21.62
2019-02-25T08:57:05.107Z,21.62
2019-02-25T08:58:15.057Z,21.42
2019-02-25T08:59:24.473Z,21.62
2019-02-25T09:00:34.100Z,21.62
2019-02-25T09:01:43.282Z,21.71
2019-02-25T09:02:52.643Z,21.52
2019-02-25T09:04:02.875Z,21.42
2019-02-25T09:05:12.330Z,21.42
2019-02-25T09:06:21.685Z,21.23
2019-02-25T09:07:33.792Z,21.62
2019-02-25T09:08:46.874Z,21.42
2019-02-25T09:09:57.126Z,21.81
2019-02-25T09:11:16.439Z,21.81
2019-02-25T09:12:26.042Z,22
2019-02-25T09:13:35.382Z,21.81
2019-02-25T09:14:44.870Z,21.81
2019-02-25T09:15:54.741Z,22
2019-02-25T09:17:04.311Z,21.81
2019-02-25T09:18:13.699Z,21.81
2019-02-25T09:19:35.470Z,22.19
2019-02-25T09:20:44.897Z,21.89
2019-02-25T09:21:54.262Z,22.09
2019-02-25T09:23:04.073Z,22.09
2019-02-25T09:24:13.949Z,21.99
2019-02-25T09:25:23.572Z,21.99
2019-02-25T09:26:32.876Z,22.09
2019-02-25T09:27:42.744Z,22.19
2019-02-25T09:28:52.098Z,21.89
2019-02-25T09:30:02.286Z,21.89
2019-02-25T09:31:12.090Z,22
2019-02-25T09:32:21.723Z,22.19
2019-02-25T09:33:31.367Z,22.19
2019-02-25T09:34:40.940Z,22.19
2019-02-25T09:35:52.481Z,22.09
2019-02-25T09:37:02.085Z,22.28
2019-02-25T09:38:11.617Z,22.19
2019-02-25T09:39:21.208Z,22.38
2019-02-25T09:40:30.745Z,22.57
2019-02-25T09:41:40.505Z,22.38
2019-02-25T09:42:49.901Z,22.38
2019-02-25T09:43:59.347Z,22.19
2019-02-25T09:45:08.926Z,21.99
2019-02-25T09:46:18.350Z,22.19
2019-02-25T09:47:27.410Z,22.09
2019-02-25T09:48:36.743Z,22.19
2019-02-25T09:49:46.369Z,22.19
2019-02-25T09:50:56.409Z,22.09
2019-02-25T09:52:06.045Z,22.19
2019-02-25T09:53:15.468Z,22.19
2019-02-25T09:54:25.102Z,22.09
2019-02-25T09:55:34.351Z,22.09
2019-02-25T09:56:43.589Z,22.09
2019-02-25T09:57:53.202Z,22.19
2019-02-25T09:59:02.630Z,22.19
2019-02-25T10:00:11.912Z,22.19
2019-02-25T10:01:21.532Z,22.19
2019-02-25T10:02:30.654Z,21.99
2019-02-25T10:03:39.976Z,22.28
2019-02-25T10:04:49.077Z,22.28
2019-02-25T10:05:57.969Z,22.09
2019-02-25T10:07:07.389Z,22.19
2019-02-25T10:08:16.756Z,22.28
2019-02-25T10:09:32.522Z,22.38
2019-02-25T10:10:42.020Z,22.19
2019-02-25T10:11:51.604Z,22.28
2019-02-25T10:13:00.864Z,22.19
2019-02-25T10:14:10.262Z,22.19
2019-02-25T10:15:19.820Z,22.09
2019-02-25T10:16:29.682Z,22.28
2019-02-25T10:17:39.395Z,21.99
2019-02-25T10:18:49.028Z,22.58
2019-02-25T10:19:58.676Z,22.19
2019-02-25T10:21:07.812Z,22.19
2019-02-25T10:22:17.265Z,22.29
2019-02-25T10:23:26.873Z,22.1
2019-02-25T10:24:36.476Z,22.1
2019-02-25T10:25:47.713Z,22.39
2019-02-25T10:26:56.761Z,21.91
2019-02-25T10:28:06.063Z,21.91
2019-02-25T10:29:15.888Z,22
2019-02-25T10:30:25.122Z,21.91
2019-02-25T10:31:34.161Z,22.1
2019-02-25T10:32:48.708Z,22.1
2019-02-25T10:33:57.744Z,21.91
2019-02-25T10:35:07.259Z,22
2019-02-25T10:36:17.176Z,21.81
2019-02-25T10:37:26.830Z,22.1
2019-02-25T10:38:37.602Z,22
2019-02-25T10:39:49.528Z,22.29
2019-02-25T10:41:01.568Z,22.39
2019-02-25T10:42:10.760Z,22.1
2019-02-25T10:43:20.068Z,22.19
2019-02-25T10:44:38.038Z,22.29
2019-02-25T10:45:47.904Z,22.1
2019-02-25T10:46:57.050Z,22.19
2019-02-25T10:48:06.101Z,22.1
2019-02-25T10:49:17.503Z,22.19
2019-02-25T10:50:33.451Z,22.39
2019-02-25T10:51:47.997Z,22.29
2019-02-25T10:53:05.796Z,22.19
2019-02-25T10:54:25.240Z,22.1
2019-02-25T10:55:34.646Z,22.1
2019-02-25T10:56:52.105Z,22.19
2019-02-25T10:58:05.982Z,22.1
2019-02-25T10:59:16.073Z,22.29
2019-02-25T11:00:25.470Z,22.29
2019-02-25T11:01:34.783Z,22.29
2019-02-25T11:02:55.319Z,22.1
2019-02-25T11:04:05.856Z,22.29
2019-02-25T11:05:15.459Z,22.19
2019-02-25T11:06:37.863Z,22.29
2019-02-25T11:07:47.224Z,22.39
2019-02-25T11:08:56.696Z,22.29
2019-02-25T11:10:06.354Z,22.29
2019-02-25T11:11:23.057Z,22.49
2019-02-25T11:12:34.684Z,22.39
2019-02-25T11:13:45.622Z,22.49
2019-02-25T11:14:55.653Z,22.39
2019-02-25T11:16:04.502Z,22.58
2019-02-25T11:17:22.368Z,22.39
2019-02-25T11:18:32.288Z,22.19
2019-02-25T11:19:43.505Z,22.67
2019-02-25T11:20:52.791Z,22.58
2019-02-25T11:22:14.035Z,22.49
2019-02-25T11:23:24.152Z,22.58
2019-02-25T11:24:33.499Z,22.58
2019-02-25T11:25:43.056Z,22.67
2019-02-25T11:26:54.146Z,22.58
2019-02-25T11:28:20.711Z,22.49
2019-02-25T11:29:37.770Z,22.47
2019-02-25T11:30:55.717Z,22.47
2019-02-25T11:32:05.025Z,22.57
2019-02-25T11:33:14.616Z,22.38
2019-02-25T11:34:25.835Z,22.47
2019-02-25T11:35:46.110Z,22.57
2019-02-25T11:37:00.143Z,22.47
2019-02-25T11:38:09.730Z,22.47
2019-02-25T11:39:19.296Z,22.57
2019-02-25T11:40:38.283Z,22.57
2019-02-25T11:41:48.192Z,22.47
2019-02-25T11:42:57.817Z,22.47
2019-02-25T11:44:07.298Z,22.38
2019-02-25T11:45:16.876Z,22.76
2019-02-25T11:46:26.246Z,22.67
2019-02-25T11:47:35.301Z,22.67
2019-02-25T11:48:44.603Z,22.47
2019-02-25T11:49:53.725Z,22.86
2019-02-25T11:51:03.260Z,22.76
2019-02-25T11:52:13.005Z,22.76
2019-02-25T11:53:22.822Z,22.67
2019-02-25T11:54:31.632Z,22.76
2019-02-25T11:55:40.872Z,22.76
2019-02-25T11:56:50.369Z,22.76
2019-02-25T11:57:59.664Z,22.76
2019-02-25T11:59:09.333Z,22.86
2019-02-25T12:00:18.902Z,22.86
2019-02-25T12:01:27.929Z,22.86
2019-02-25T12:02:37.275Z,22.86
2019-02-25T12:03:47.113Z,22.76
2019-02-25T12:04:56.731Z,22.76
2019-02-25T12:06:05.821Z,22.86
2019-02-25T12:07:15.704Z,22.67
2019-02-25T12:08:25.354Z,22.76
2019-02-25T12:09:36.401Z,22.86
2019-02-25T12:10:45.397Z,22.76
2019-02-25T12:11:55.174Z,22.76
2019-02-25T12:13:04.483Z,22.76
2019-02-25T12:14:13.655Z,22.67
2019-02-25T12:15:23.447Z,22.67
2019-02-25T12:16:33.137Z,22.67
2019-02-25T12:17:42.995Z,22.67
2019-02-25T12:18:52.091Z,22.67
2019-02-25T12:20:01.417Z,22.67
2019-02-25T12:21:10.740Z,22.67
2019-02-25T12:22:20.310Z,22.76
2019-02-25T12:23:29.597Z,22.67
2019-02-25T12:24:39.107Z,22.67
2019-02-25T12:25:48.144Z,22.76
2019-02-25T12:26:57.752Z,22.76
2019-02-25T12:28:07.114Z,22.67
2019-02-25T12:29:16.479Z,22.67
2019-02-25T12:30:26.053Z,22.67
2019-02-25T12:31:35.576Z,22.67
2019-02-25T12:32:44.861Z,22.76
2019-02-25T12:33:54.178Z,22.76
2019-02-25T12:35:03.670Z,22.67
2019-02-25T12:36:13.740Z,22.67
2019-02-25T12:37:23.373Z,22.67
2019-02-25T12:38:33.166Z,22.67
2019-02-25T12:39:42.480Z,22.86
2019-02-25T12:40:51.991Z,22.86
2019-02-25T12:42:01.599Z,22.76
2019-02-25T12:43:11.684Z,22.86
2019-02-25T12:44:20.974Z,22.67
2019-02-25T12:45:30.599Z,22.39
2019-02-25T12:46:39.922Z,22.49
2019-02-25T12:47:49.719Z,22.49
2019-02-25T12:48:59.017Z,22.39
2019-02-25T12:50:09.192Z,22.39
2019-02-25T12:51:18.759Z,22.49
2019-02-25T12:52:28.109Z,22.49
2019-02-25T12:53:37.897Z,22.49
2019-02-25T12:54:47.281Z,22.67
2019-02-25T12:55:56.807Z,22.58
2019-02-25T12:57:06.575Z,22.67
2019-02-25T12:58:16.383Z,22.49
2019-02-25T12:59:25.699Z,22.58
2019-02-25T13:00:35.040Z,22.58
2019-02-25T13:01:44.759Z,22.58
2019-02-25T13:02:54.943Z,22.58
2019-02-25T13:04:05.286Z,22.58
2019-02-25T13:05:15.741Z,22.58
2019-02-25T13:06:25.348Z,22.4
2019-02-25T13:07:34.887Z,22.39
2019-02-25T13:08:44.601Z,22.19
2019-02-25T13:09:54.010Z,22.58
2019-02-25T13:11:03.543Z,22.67
2019-02-25T13:12:12.576Z,22.67
2019-02-25T13:13:21.930Z,22.58
2019-02-25T13:14:31.556Z,22.67
2019-02-25T13:15:40.903Z,22.58
2019-02-25T13:16:50.168Z,22.58
2019-02-25T13:18:00.294Z,22.58
2019-02-25T13:19:10.339Z,22.58
2019-02-25T13:20:19.735Z,22.58
2019-02-25T13:21:28.937Z,22.67
2019-02-25T13:22:38.655Z,22.49
2019-02-25T13:23:48.183Z,22.49
2019-02-25T13:25:07.860Z,22.49
2019-02-25T13:26:21.217Z,22.39
2019-02-25T13:27:34.088Z,22.49
2019-02-25T13:28:43.878Z,22.49
2019-02-25T13:29:55.257Z,22.58
2019-02-25T13:31:08.008Z,22.58
2019-02-25T13:32:20.331Z,22.49
2019-02-25T13:33:30.093Z,22.58
2019-02-25T13:34:40.156Z,22.58
2019-02-25T13:35:49.999Z,22.58
2019-02-25T13:37:02.672Z,22.67
2019-02-25T13:38:12.211Z,22.67
2019-02-25T13:39:21.975Z,22.49
2019-02-25T13:40:31.452Z,22.49
2019-02-25T13:41:40.948Z,22.67
2019-02-25T13:42:50.423Z,22.39
2019-02-25T13:44:00.131Z,22.49
2019-02-25T13:45:09.688Z,22.77
2019-02-25T13:46:18.935Z,22.39
2019-02-25T13:47:28.635Z,22.87
2019-02-25T13:48:37.951Z,22.67
2019-02-25T13:49:47.941Z,22.77
2019-02-25T13:50:58.342Z,22.49
2019-02-25T13:52:08.308Z,22.77
2019-02-25T13:53:17.811Z,22.77
2019-02-25T13:54:29.375Z,22.77
2019-02-25T13:55:38.948Z,22.77
2019-02-25T13:56:48.626Z,22.77
2019-02-25T13:58:00.271Z,22.77
2019-02-25T13:59:10.202Z,22.87
2019-02-25T14:00:20.210Z,22.78
2019-02-25T14:01:31.481Z,22.77
2019-02-25T14:02:40.695Z,22.77
2019-02-25T14:03:50.344Z,22.88
2019-02-25T14:04:59.769Z,22.88
2019-02-25T14:06:09.141Z,22.87
2019-02-25T14:07:18.612Z,22.77
2019-02-25T14:08:27.669Z,22.78
2019-02-25T14:09:37.883Z,22.87
2019-02-25T14:10:47.629Z,22.88
2019-02-25T14:11:57.264Z,22.87
2019-02-25T14:13:06.902Z,22.88
2019-02-25T14:14:16.042Z,22.87
2019-02-25T14:15:25.440Z,22.87
2019-02-25T14:16:34.560Z,22.97
2019-02-25T14:17:44.073Z,22.78
2019-02-25T14:18:54.055Z,22.88
2019-02-25T14:20:03.665Z,22.78
2019-02-25T14:21:14.724Z,22.88
2019-02-25T14:22:24.794Z,22.78
2019-02-25T14:23:34.200Z,22.98
2019-02-25T14:24:50.077Z,22.78
2019-02-25T14:26:01.401Z,22.88
2019-02-25T14:27:11.843Z,22.78
2019-02-25T14:28:21.488Z,22.78
2019-02-25T14:29:33.133Z,22.78
2019-02-25T14:30:43.090Z,22.78
2019-02-25T14:31:56.088Z,22.78
2019-02-25T14:33:07.918Z,22.88
2019-02-25T14:34:21.712Z,22.87
2019-02-25T14:35:31.260Z,22.77
2019-02-25T14:36:41.176Z,22.78
2019-02-25T14:38:01.237Z,22.78
2019-02-25T14:39:28.326Z,22.78
2019-02-25T14:40:49.264Z,22.69
2019-02-25T14:42:12.088Z,22.67
2019-02-25T14:43:29.731Z,22.67
2019-02-25T14:44:58.309Z,22.67
2019-02-25T14:46:18.413Z,22.88
2019-02-25T14:47:41.578Z,23.35
2019-02-25T14:49:00.695Z,23.16
2019-02-25T14:50:11.208Z,23.25
2019-02-25T14:51:21.058Z,23.25
2019-02-25T14:52:33.503Z,23.25
2019-02-25T14:53:46.857Z,23.16
2019-02-25T14:55:01.324Z,23.16
2019-02-25T14:56:18.717Z,23.16
2019-02-25T14:57:31.635Z,23.45
2019-02-25T14:58:50.140Z,23.35
2019-02-25T14:59:59.889Z,23.25
2019-02-25T15:01:10.016Z,23.25
2019-02-25T15:02:21.556Z,23.35
2019-02-25T15:03:31.613Z,23.45
2019-02-25T15:04:43.879Z,23.65